PROFILE

 METAR AND TAF INFORMATION
METAR FOR KSAN
ADDS - METARS form results

(2300 UTC 23 April 2018)
Data provider http://aviationweather.gov/adds/metars/
 
METAR text: KSAN 232251Z 30007KT 10SM FEW008 SCT200 BKN250 20/13 A2998 RMK AO2 SLP152 T02000128
Conditions at: KSAN (SAN DIEGO , CA, US) observed 2251 UTC 23 April 2018
Temperature: 20.0°C (68°F)
Dewpoint: 12.8°C (55°F) [RH = 63%]
Pressure (altimeter): 29.98 inches Hg (1015.3 mb)
[Sea-level pressure: 1015.2 mb]
Winds: from the WNW (300 degrees) at 8 MPH (7 knots; 3.6 m/s)
Visibility: 10 or more miles (16+ km)
Ceiling: 25000 feet AGL
Clouds: few clouds at 800 feet AGL
scattered clouds at 20000 feet AGL
broken clouds at 25000 feet AGL
Weather: no significant weather observed at this time

Forecast for: KSAN (SAN DIEGO , CA, US)
Text: KSAN 232040Z 2321/2424 29010KT P6SM FEW250
Forecast period: 2100 UTC 23 April 2018 to 0100 UTC 24 April 2018
Forecast type: FROM: standard forecast or significant change
Winds: from the WNW (290 degrees) at 12 MPH (10 knots; 5.2 m/s)
Visibility: 6 or more miles (10+ km)
Clouds: few clouds at 25000 feet AGL
Weather: no significant weather forecast for this period
Forecast for: KSAN (SAN DIEGO , CA, US)
Text: KSAN 232040Z 2321/2424 29010KT P6SM FEW250
Forecast period: 2100 UTC 23 April 2018 to 0100 UTC 24 April 2018
Forecast type: FROM: standard forecast or significant change
Winds: from the WNW (290 degrees) at 12 MPH (10 knots; 5.2 m/s)
Visibility: 6 or more miles (10+ km)
Clouds: few clouds at 25000 feet AGL
Weather: no significant weather forecast for this period
Forecast for: KSAN (SAN DIEGO , CA, US)
Text: KSAN 232040Z 2321/2424 29010KT P6SM FEW250
Forecast period: 0100 to 0500 UTC 24 April 2018
Forecast type: FROM: standard forecast or significant change
Winds: variable direction winds at 5 MPH (4 knots; 2.1 m/s)
Visibility: 6 or more miles (10+ km)
Clouds: scattered clouds at 800 feet AGL
Weather: no significant weather forecast for this period
Forecast for: KSAN (SAN DIEGO , CA, US)
Text: KSAN 232040Z 2321/2424 29010KT P6SM FEW250
Forecast period: 0100 to 0500 UTC 24 April 2018
Forecast type: FROM: standard forecast or significant change
Winds: variable direction winds at 5 MPH (4 knots; 2.1 m/s)
Visibility: 6 or more miles (10+ km)
Clouds: scattered clouds at 800 feet AGL
Weather: no significant weather forecast for this period
Forecast for: KSAN (SAN DIEGO , CA, US)
Text: KSAN 232040Z 2321/2424 29010KT P6SM FEW250
Forecast period: 0500 to 1700 UTC 24 April 2018
Forecast type: FROM: standard forecast or significant change
Winds: variable direction winds at 3 MPH (3 knots; 1.6 m/s)
Visibility: 5 miles (8 km)
Ceiling: 600 feet AGL
Clouds: overcast cloud deck at 600 feet AGL
Weather: BR  (mist)
Forecast for: KSAN (SAN DIEGO , CA, US)
Text: KSAN 232040Z 2321/2424 29010KT P6SM FEW250
Forecast period: 0500 to 1700 UTC 24 April 2018
Forecast type: FROM: standard forecast or significant change
Winds: variable direction winds at 3 MPH (3 knots; 1.6 m/s)
Visibility: 5 miles (8 km)
Ceiling: 600 feet AGL
Clouds: overcast cloud deck at 600 feet AGL
Weather: BR  (mist)
Forecast for: KSAN (SAN DIEGO , CA, US)
Text: KSAN 232040Z 2321/2424 29010KT P6SM FEW250
Forecast period: 1700 to 1900 UTC 24 April 2018
Forecast type: FROM: standard forecast or significant change
Winds: variable direction winds at 5 MPH (4 knots; 2.1 m/s)
Visibility: 6 or more miles (10+ km)
Clouds: scattered clouds at 800 feet AGL
scattered clouds at 25000 feet AGL
Weather: no significant weather forecast for this period
Forecast for: KSAN (SAN DIEGO , CA, US)
Text: KSAN 232040Z 2321/2424 29010KT P6SM FEW250
Forecast period: 1700 to 1900 UTC 24 April 2018
Forecast type: FROM: standard forecast or significant change
Winds: variable direction winds at 5 MPH (4 knots; 2.1 m/s)
Visibility: 6 or more miles (10+ km)
Clouds: scattered clouds at 800 feet AGL
scattered clouds at 25000 feet AGL
Weather: no significant weather forecast for this period
Forecast for: KSAN (SAN DIEGO , CA, US)
Text: KSAN 232040Z 2321/2424 29010KT P6SM FEW250
Forecast period: 1900 UTC 24 April 2018 to 0000 UTC 25 April 2018
Forecast type: FROM: standard forecast or significant change
Winds: from the W (270 degrees) at 12 MPH (10 knots; 5.2 m/s)
Visibility: 6 or more miles (10+ km)
Clouds: few clouds at 1000 feet AGL
scattered clouds at 25000 feet AGL
Weather: no significant weather forecast for this period
Forecast for: KSAN (SAN DIEGO , CA, US)
Text: KSAN 232040Z 2321/2424 29010KT P6SM FEW250
Forecast period: 1900 UTC 24 April 2018 to 0000 UTC 25 April 2018
Forecast type: FROM: standard forecast or significant change
Winds: from the W (270 degrees) at 12 MPH (10 knots; 5.2 m/s)
Visibility: 6 or more miles (10+ km)
Clouds: few clouds at 1000 feet AGL
scattered clouds at 25000 feet AGL
Weather: no significant weather forecast for this period

 AIRPORT MAP

 RUNWAY INFORMATION
Runway 09 Runway length 9401 ft Runway width 200 ft
Runway elevation 14 ft Runway displaced threshold 700 ft Runway heading 106
Runway 27 Runway length 9401 ft Runway width 200 ft
Runway elevation 13 ft Runway displaced threshold 1810 ft Runway heading 286

 AIRPORT FREQUENCIES
Type A/D Name SOCAL APP/ Frequency 119.6 MHZ
Type ATIS Name ATIS Frequency 134.8 MHZ
Type CLD Name CLNC DEL Frequency 125.9 MHZ
Type GND Name GND Frequency 123.9 MHZ
Type MISC Name CG Frequency 157.15 MHZ
Type MISC Name CG Frequency 898.4 MHZ
Type TWR Name LINDBERGH Frequency 118.3 MHZ
Type UNIC Name UNICOM Frequency 122.95 MHZ

 AIRPORT NEAR NAVIGATION AIDS
Type NDB Name Boing Frequency 245 KHZ